Aérodrome :
LOGIN :

S'inscrire | Disclaimer

   EN    FR    IT 

 










Légende :    VFR   VFR Marginal   IFR   IFR Intensif   IFR Très Intensif
Visi : 
Plafond : 
>= 8 km
>= 3000ft
5 à 8 km
1000 à 3000 ft
1500m à 5 km
500 à 1000 ft
800 à 1500m
200 à 500 ft
< 800m
< 200 ft
Symboles :   Orages  Brouillard  Fortes neiges  Fortes précipitations  Vent > 20 kt
SIGMETs :   Divers  Orages  Givrage  Turbulence  Onde Orograph.  Cendres Volcan.






- Altitude de l'aérodrome : 268 ft
- Code IATA : BFS


EGAA - Belfast Aldergrove

DERNIER METAR :
  • 051250Z AUTO 12012G23KT 100V170 3200 +RA FEW011/// SCT042/// BKN049/// //////CB 14/13 Q0995

METARs EXPIRÉS :
  • 051220Z 13013G24KT 100V160 6000 -RA SCT010CB BKN017 BKN028 14/13 Q0995 RERA
  • 051150Z AUTO 13012G22KT 100V160 5000 RA BKN009/// BKN016/// //////CB 15/13 Q0996 REDZ
  • 051120Z AUTO 14012G24KT 9999 FEW010/// SCT018/// //////CB 15/13 Q0996 REDZ RERA
  • 051050Z AUTO 14014KT 110V180 2300 RA SCT010/// BKN018/// BKN042/// //////TCU 15/13 Q0996 REDZ

TAF AMD TAF EGAA
Valide du 05 à 12h jusqu'au 06 à 12h UTC


051242Z 0512/0612 13018G28KT 9999 FEW012 BKN020
TEMPO 0512/0612 6000 SHRA BKN012
PROB40
TEMPO 0512/0612 3000 +SHRA +TSGS BKN007 BKN020CB
BECMG 0513/0517 13012KT
PROB30
TEMPO 0520/0607 BKN004
BECMG 0603/0606 VRB05KT



MET'MAP, la Météo Aéronautique d'un coup d'oeil ! - Copyright ORBIFLY Décembre 2007 - Disclaimer

ORBIFLY MET'MAP TEAM :

Programmation & Développement : Alexandra Zaïnal
Sur une idée originale de : Baudouin d'Aumeries
Assistance à la programmation : Marc-Olivier Méhu
Soutien technique & logistique : Manuel Goepfert

Contact : metmap@orbifly.com




SOURCES & CREDITS :

   NOAA